sensor_id;sensor_type;location;lat;lon;timestamp;P1;durP1;ratioP1;P2;durP2;ratioP2
42662;SDS011;44330;51.360;6.686;2022-12-07T00:02:21;25.77;;;16.13;;
42662;SDS011;44330;51.360;6.686;2022-12-07T00:04:48;28.58;;;15.73;;
42662;SDS011;44330;51.360;6.686;2022-12-07T00:07:14;26.15;;;15.43;;
42662;SDS011;44330;51.360;6.686;2022-12-07T00:09:40;24.33;;;15.27;;
42662;SDS011;44330;51.360;6.686;2022-12-07T00:12:06;28.08;;;16.35;;
42662;SDS011;44330;51.360;6.686;2022-12-07T00:14:33;26.98;;;16.45;;
42662;SDS011;44330;51.360;6.686;2022-12-07T00:16:58;34.53;;;17.20;;
42662;SDS011;44330;51.360;6.686;2022-12-07T00:19:24;26.85;;;16.17;;
42662;SDS011;44330;51.360;6.686;2022-12-07T00:21:49;29.83;;;18.08;;
42662;SDS011;44330;51.360;6.686;2022-12-07T00:24:15;27.08;;;16.67;;
42662;SDS011;44330;51.360;6.686;2022-12-07T00:26:41;26.85;;;15.98;;
42662;SDS011;44330;51.360;6.686;2022-12-07T00:29:09;31.05;;;17.80;;
42662;SDS011;44330;51.360;6.686;2022-12-07T00:31:39;29.70;;;17.63;;
42662;SDS011;44330;51.360;6.686;2022-12-07T00:34:05;24.50;;;16.40;;
42662;SDS011;44330;51.360;6.686;2022-12-07T00:36:32;28.00;;;17.15;;
42662;SDS011;44330;51.360;6.686;2022-12-07T00:38:58;31.25;;;16.92;;
42662;SDS011;44330;51.360;6.686;2022-12-07T00:41:25;28.70;;;17.75;;
42662;SDS011;44330;51.360;6.686;2022-12-07T00:43:52;26.48;;;17.75;;
42662;SDS011;44330;51.360;6.686;2022-12-07T00:46:19;27.60;;;16.60;;
42662;SDS011;44330;51.360;6.686;2022-12-07T00:48:45;30.33;;;17.60;;
42662;SDS011;44330;51.360;6.686;2022-12-07T00:51:12;24.17;;;16.58;;
42662;SDS011;44330;51.360;6.686;2022-12-07T00:53:39;32.90;;;18.08;;
42662;SDS011;44330;51.360;6.686;2022-12-07T00:56:06;32.63;;;18.20;;
42662;SDS011;44330;51.360;6.686;2022-12-07T00:58:37;29.60;;;18.05;;
42662;SDS011;44330;51.360;6.686;2022-12-07T01:01:03;28.40;;;18.15;;
42662;SDS011;44330;51.360;6.686;2022-12-07T01:03:30;28.42;;;17.73;;
42662;SDS011;44330;51.360;6.686;2022-12-07T01:05:56;29.85;;;18.38;;
42662;SDS011;44330;51.360;6.686;2022-12-07T01:08:22;33.63;;;18.33;;
42662;SDS011;44330;51.360;6.686;2022-12-07T01:10:49;35.70;;;19.35;;
42662;SDS011;44330;51.360;6.686;2022-12-07T01:13:22;31.10;;;18.60;;
42662;SDS011;44330;51.360;6.686;2022-12-07T01:15:47;31.35;;;19.15;;
42662;SDS011;44330;51.360;6.686;2022-12-07T01:18:13;31.58;;;18.15;;
42662;SDS011;44330;51.360;6.686;2022-12-07T01:20:38;33.70;;;18.85;;
42662;SDS011;44330;51.360;6.686;2022-12-07T01:23:05;28.75;;;18.63;;
42662;SDS011;44330;51.360;6.686;2022-12-07T01:25:31;30.88;;;18.25;;
42662;SDS011;44330;51.360;6.686;2022-12-07T01:27:56;28.90;;;17.73;;
42662;SDS011;44330;51.360;6.686;2022-12-07T01:30:22;30.05;;;17.15;;
42662;SDS011;44330;51.360;6.686;2022-12-07T01:32:48;27.73;;;16.83;;
42662;SDS011;44330;51.360;6.686;2022-12-07T01:35:13;30.58;;;18.58;;
42662;SDS011;44330;51.360;6.686;2022-12-07T01:37:39;27.17;;;16.33;;
42662;SDS011;44330;51.360;6.686;2022-12-07T01:40:05;28.58;;;17.25;;
42662;SDS011;44330;51.360;6.686;2022-12-07T01:42:33;22.88;;;13.98;;
42662;SDS011;44330;51.360;6.686;2022-12-07T01:48:01;29.20;;;16.73;;
42662;SDS011;44330;51.360;6.686;2022-12-07T01:50:27;30.55;;;17.45;;
42662;SDS011;44330;51.360;6.686;2022-12-07T01:52:56;26.17;;;16.23;;
42662;SDS011;44330;51.360;6.686;2022-12-07T01:55:24;34.08;;;18.70;;
42662;SDS011;44330;51.360;6.686;2022-12-07T01:57:51;28.60;;;16.98;;
42662;SDS011;44330;51.360;6.686;2022-12-07T02:00:19;29.08;;;18.65;;
42662;SDS011;44330;51.360;6.686;2022-12-07T02:02:48;27.33;;;16.85;;
42662;SDS011;44330;51.360;6.686;2022-12-07T02:05:20;26.75;;;16.70;;
42662;SDS011;44330;51.360;6.686;2022-12-07T02:07:47;26.05;;;16.80;;
42662;SDS011;44330;51.360;6.686;2022-12-07T02:10:19;27.90;;;15.90;;
42662;SDS011;44330;51.360;6.686;2022-12-07T02:12:47;27.80;;;16.88;;
42662;SDS011;44330;51.360;6.686;2022-12-07T02:15:16;30.20;;;17.15;;
42662;SDS011;44330;51.360;6.686;2022-12-07T02:28:58;33.05;;;17.17;;
42662;SDS011;44330;51.360;6.686;2022-12-07T02:32:31;31.25;;;17.38;;
42662;SDS011;44330;51.360;6.686;2022-12-07T02:37:27;28.70;;;18.02;;
42662;SDS011;44330;51.360;6.686;2022-12-07T02:40:22;30.20;;;17.20;;
42662;SDS011;44330;51.360;6.686;2022-12-07T02:42:57;34.50;;;18.02;;
42662;SDS011;44330;51.360;6.686;2022-12-07T02:45:54;28.88;;;17.85;;
42662;SDS011;44330;51.360;6.686;2022-12-07T02:48:22;31.25;;;18.40;;
42662;SDS011;44330;51.360;6.686;2022-12-07T02:50:50;33.92;;;18.35;;
42662;SDS011;44330;51.360;6.686;2022-12-07T02:53:30;33.42;;;17.73;;
42662;SDS011;44330;51.360;6.686;2022-12-07T02:58:23;30.83;;;17.25;;
42662;SDS011;44330;51.360;6.686;2022-12-07T03:01:10;27.88;;;17.80;;
42662;SDS011;44330;51.360;6.686;2022-12-07T03:03:57;29.10;;;17.17;;
42662;SDS011;44330;51.360;6.686;2022-12-07T03:06:41;29.80;;;17.73;;
42662;SDS011;44330;51.360;6.686;2022-12-07T03:09:32;28.33;;;16.92;;
42662;SDS011;44330;51.360;6.686;2022-12-07T03:12:20;31.92;;;17.48;;
42662;SDS011;44330;51.360;6.686;2022-12-07T03:14:59;27.80;;;16.88;;
42662;SDS011;44330;51.360;6.686;2022-12-07T03:17:30;32.53;;;18.17;;
42662;SDS011;44330;51.360;6.686;2022-12-07T03:20:00;34.58;;;18.38;;
42662;SDS011;44330;51.360;6.686;2022-12-07T03:22:29;33.80;;;20.30;;
42662;SDS011;44330;51.360;6.686;2022-12-07T03:24:59;33.55;;;18.67;;
42662;SDS011;44330;51.360;6.686;2022-12-07T03:27:35;35.20;;;18.98;;
42662;SDS011;44330;51.360;6.686;2022-12-07T03:30:08;31.73;;;18.63;;
42662;SDS011;44330;51.360;6.686;2022-12-07T03:32:48;34.90;;;18.45;;
42662;SDS011;44330;51.360;6.686;2022-12-07T03:35:22;30.17;;;17.15;;
42662;SDS011;44330;51.360;6.686;2022-12-07T03:37:56;29.13;;;16.77;;
42662;SDS011;44330;51.360;6.686;2022-12-07T03:40:38;33.78;;;19.75;;
42662;SDS011;44330;51.360;6.686;2022-12-07T03:43:09;30.27;;;17.50;;
42662;SDS011;44330;51.360;6.686;2022-12-07T03:45:42;39.28;;;18.10;;
42662;SDS011;44330;51.360;6.686;2022-12-07T03:51:02;30.30;;;16.73;;
42662;SDS011;44330;51.360;6.686;2022-12-07T03:53:39;31.55;;;17.42;;
42662;SDS011;44330;51.360;6.686;2022-12-07T03:56:10;25.35;;;16.15;;
42662;SDS011;44330;51.360;6.686;2022-12-07T03:58:36;35.28;;;18.48;;
42662;SDS011;44330;51.360;6.686;2022-12-07T04:01:03;33.08;;;18.75;;
42662;SDS011;44330;51.360;6.686;2022-12-07T04:03:28;30.00;;;18.85;;
42662;SDS011;44330;51.360;6.686;2022-12-07T04:05:54;36.05;;;19.15;;
42662;SDS011;44330;51.360;6.686;2022-12-07T04:08:20;31.90;;;17.48;;
42662;SDS011;44330;51.360;6.686;2022-12-07T04:10:45;30.75;;;18.30;;
42662;SDS011;44330;51.360;6.686;2022-12-07T04:13:11;32.10;;;17.85;;
42662;SDS011;44330;51.360;6.686;2022-12-07T04:15:36;34.58;;;17.85;;
42662;SDS011;44330;51.360;6.686;2022-12-07T04:18:02;34.97;;;19.15;;
42662;SDS011;44330;51.360;6.686;2022-12-07T04:20:27;33.28;;;17.42;;
42662;SDS011;44330;51.360;6.686;2022-12-07T04:22:53;28.17;;;16.58;;
42662;SDS011;44330;51.360;6.686;2022-12-07T04:25:18;33.65;;;17.25;;
42662;SDS011;44330;51.360;6.686;2022-12-07T04:27:44;29.77;;;16.73;;
42662;SDS011;44330;51.360;6.686;2022-12-07T04:30:10;34.90;;;17.85;;
42662;SDS011;44330;51.360;6.686;2022-12-07T04:32:35;25.98;;;15.65;;
42662;SDS011;44330;51.360;6.686;2022-12-07T04:35:02;27.48;;;16.58;;
42662;SDS011;44330;51.360;6.686;2022-12-07T04:37:28;33.88;;;16.42;;
42662;SDS011;44330;51.360;6.686;2022-12-07T04:39:53;28.83;;;15.88;;
42662;SDS011;44330;51.360;6.686;2022-12-07T04:42:19;26.38;;;15.10;;
42662;SDS011;44330;51.360;6.686;2022-12-07T04:44:44;29.30;;;16.30;;
42662;SDS011;44330;51.360;6.686;2022-12-07T04:47:10;27.20;;;15.25;;
42662;SDS011;44330;51.360;6.686;2022-12-07T04:49:35;29.75;;;15.27;;
42662;SDS011;44330;51.360;6.686;2022-12-07T04:52:01;21.90;;;14.68;;
42662;SDS011;44330;51.360;6.686;2022-12-07T04:54:27;29.40;;;14.52;;
42662;SDS011;44330;51.360;6.686;2022-12-07T04:56:52;28.15;;;14.98;;
42662;SDS011;44330;51.360;6.686;2022-12-07T04:59:18;29.13;;;14.77;;
42662;SDS011;44330;51.360;6.686;2022-12-07T05:01:43;28.25;;;14.88;;
42662;SDS011;44330;51.360;6.686;2022-12-07T05:04:09;31.67;;;14.43;;
42662;SDS011;44330;51.360;6.686;2022-12-07T05:06:35;28.25;;;15.25;;
42662;SDS011;44330;51.360;6.686;2022-12-07T05:09:00;22.25;;;13.90;;
42662;SDS011;44330;51.360;6.686;2022-12-07T05:11:26;28.00;;;14.45;;
42662;SDS011;44330;51.360;6.686;2022-12-07T05:14:05;25.20;;;13.95;;
42662;SDS011;44330;51.360;6.686;2022-12-07T05:16:31;23.75;;;13.30;;
42662;SDS011;44330;51.360;6.686;2022-12-07T05:18:57;22.85;;;13.27;;
42662;SDS011;44330;51.360;6.686;2022-12-07T05:21:23;33.90;;;14.02;;
42662;SDS011;44330;51.360;6.686;2022-12-07T05:23:49;21.17;;;13.20;;
42662;SDS011;44330;51.360;6.686;2022-12-07T05:26:14;36.70;;;13.40;;
42662;SDS011;44330;51.360;6.686;2022-12-07T05:28:40;22.88;;;12.77;;
42662;SDS011;44330;51.360;6.686;2022-12-07T05:31:06;25.27;;;14.05;;
42662;SDS011;44330;51.360;6.686;2022-12-07T05:33:31;27.83;;;13.40;;
42662;SDS011;44330;51.360;6.686;2022-12-07T05:35:57;21.50;;;12.32;;
42662;SDS011;44330;51.360;6.686;2022-12-07T05:38:25;22.95;;;12.63;;
42662;SDS011;44330;51.360;6.686;2022-12-07T05:40:51;15.80;;;9.37;;
42662;SDS011;44330;51.360;6.686;2022-12-07T05:43:18;20.83;;;11.85;;
42662;SDS011;44330;51.360;6.686;2022-12-07T05:45:44;21.10;;;11.90;;
42662;SDS011;44330;51.360;6.686;2022-12-07T05:48:09;22.17;;;11.20;;
42662;SDS011;44330;51.360;6.686;2022-12-07T05:50:35;22.75;;;11.68;;
42662;SDS011;44330;51.360;6.686;2022-12-07T05:53:00;24.65;;;12.77;;
42662;SDS011;44330;51.360;6.686;2022-12-07T05:55:26;23.40;;;11.70;;
42662;SDS011;44330;51.360;6.686;2022-12-07T05:57:51;22.25;;;12.13;;
42662;SDS011;44330;51.360;6.686;2022-12-07T06:00:36;21.75;;;10.68;;
42662;SDS011;44330;51.360;6.686;2022-12-07T06:03:01;28.48;;;11.95;;
42662;SDS011;44330;51.360;6.686;2022-12-07T06:05:27;20.10;;;11.23;;
42662;SDS011;44330;51.360;6.686;2022-12-07T06:07:52;19.02;;;11.20;;
42662;SDS011;44330;51.360;6.686;2022-12-07T06:10:18;23.95;;;11.98;;
42662;SDS011;44330;51.360;6.686;2022-12-07T06:12:43;21.58;;;11.75;;
42662;SDS011;44330;51.360;6.686;2022-12-07T06:15:11;27.38;;;11.73;;
42662;SDS011;44330;51.360;6.686;2022-12-07T06:17:38;22.60;;;11.63;;
42662;SDS011;44330;51.360;6.686;2022-12-07T06:20:04;22.13;;;11.18;;
42662;SDS011;44330;51.360;6.686;2022-12-07T06:22:30;23.08;;;11.43;;
42662;SDS011;44330;51.360;6.686;2022-12-07T06:24:55;28.88;;;11.05;;
42662;SDS011;44330;51.360;6.686;2022-12-07T06:27:21;24.05;;;11.00;;
42662;SDS011;44330;51.360;6.686;2022-12-07T06:29:47;22.25;;;10.52;;
42662;SDS011;44330;51.360;6.686;2022-12-07T06:32:12;25.42;;;11.57;;
42662;SDS011;44330;51.360;6.686;2022-12-07T06:34:38;24.23;;;10.98;;
42662;SDS011;44330;51.360;6.686;2022-12-07T06:37:03;20.77;;;10.15;;
42662;SDS011;44330;51.360;6.686;2022-12-07T06:39:29;29.30;;;10.68;;
42662;SDS011;44330;51.360;6.686;2022-12-07T06:41:55;24.23;;;9.85;;
42662;SDS011;44330;51.360;6.686;2022-12-07T06:44:21;18.55;;;10.48;;
42662;SDS011;44330;51.360;6.686;2022-12-07T06:46:48;26.60;;;10.23;;
42662;SDS011;44330;51.360;6.686;2022-12-07T06:49:14;23.77;;;11.43;;
42662;SDS011;44330;51.360;6.686;2022-12-07T06:51:40;22.77;;;10.50;;
42662;SDS011;44330;51.360;6.686;2022-12-07T06:54:07;20.45;;;10.35;;
42662;SDS011;44330;51.360;6.686;2022-12-07T06:56:33;18.92;;;9.88;;
42662;SDS011;44330;51.360;6.686;2022-12-07T06:58:59;22.70;;;9.25;;
42662;SDS011;44330;51.360;6.686;2022-12-07T07:01:25;20.40;;;9.98;;
42662;SDS011;44330;51.360;6.686;2022-12-07T07:03:50;15.40;;;9.75;;
42662;SDS011;44330;51.360;6.686;2022-12-07T07:06:17;18.15;;;10.48;;
42662;SDS011;44330;51.360;6.686;2022-12-07T07:08:42;19.48;;;10.68;;
42662;SDS011;44330;51.360;6.686;2022-12-07T07:11:08;22.08;;;10.73;;
42662;SDS011;44330;51.360;6.686;2022-12-07T07:13:34;16.33;;;9.40;;
42662;SDS011;44330;51.360;6.686;2022-12-07T07:16:01;18.98;;;10.80;;
42662;SDS011;44330;51.360;6.686;2022-12-07T07:18:27;23.38;;;11.00;;
42662;SDS011;44330;51.360;6.686;2022-12-07T07:20:53;20.48;;;10.75;;
42662;SDS011;44330;51.360;6.686;2022-12-07T07:23:19;22.45;;;10.80;;
42662;SDS011;44330;51.360;6.686;2022-12-07T07:25:46;21.65;;;10.38;;
42662;SDS011;44330;51.360;6.686;2022-12-07T07:28:12;21.77;;;10.60;;
42662;SDS011;44330;51.360;6.686;2022-12-07T07:30:37;24.90;;;10.45;;
42662;SDS011;44330;51.360;6.686;2022-12-07T07:33:03;21.50;;;10.75;;
42662;SDS011;44330;51.360;6.686;2022-12-07T07:35:30;22.85;;;10.20;;
42662;SDS011;44330;51.360;6.686;2022-12-07T07:37:57;16.30;;;10.70;;
42662;SDS011;44330;51.360;6.686;2022-12-07T07:40:23;15.00;;;9.63;;
42662;SDS011;44330;51.360;6.686;2022-12-07T07:42:49;19.38;;;10.10;;
42662;SDS011;44330;51.360;6.686;2022-12-07T07:45:16;17.40;;;9.73;;
42662;SDS011;44330;51.360;6.686;2022-12-07T07:47:42;21.20;;;10.27;;
42662;SDS011;44330;51.360;6.686;2022-12-07T07:50:07;19.45;;;10.18;;
42662;SDS011;44330;51.360;6.686;2022-12-07T07:52:33;16.75;;;9.10;;
42662;SDS011;44330;51.360;6.686;2022-12-07T07:54:59;16.83;;;9.73;;
42662;SDS011;44330;51.360;6.686;2022-12-07T07:57:27;20.23;;;9.65;;
42662;SDS011;44330;51.360;6.686;2022-12-07T07:59:53;30.55;;;11.38;;
42662;SDS011;44330;51.360;6.686;2022-12-07T08:02:19;17.38;;;10.40;;
42662;SDS011;44330;51.360;6.686;2022-12-07T08:04:45;19.38;;;10.23;;
42662;SDS011;44330;51.360;6.686;2022-12-07T08:07:12;19.30;;;10.95;;
42662;SDS011;44330;51.360;6.686;2022-12-07T08:09:41;22.30;;;10.48;;
42662;SDS011;44330;51.360;6.686;2022-12-07T08:12:07;18.25;;;10.57;;
42662;SDS011;44330;51.360;6.686;2022-12-07T08:14:33;20.35;;;9.93;;
42662;SDS011;44330;51.360;6.686;2022-12-07T08:17:04;26.45;;;10.80;;
42662;SDS011;44330;51.360;6.686;2022-12-07T08:19:35;23.52;;;10.55;;
42662;SDS011;44330;51.360;6.686;2022-12-07T08:22:01;22.10;;;9.88;;
42662;SDS011;44330;51.360;6.686;2022-12-07T08:24:27;20.60;;;10.18;;
42662;SDS011;44330;51.360;6.686;2022-12-07T08:26:52;23.63;;;11.25;;
42662;SDS011;44330;51.360;6.686;2022-12-07T08:29:18;21.73;;;10.73;;
42662;SDS011;44330;51.360;6.686;2022-12-07T08:31:46;15.88;;;8.05;;
42662;SDS011;44330;51.360;6.686;2022-12-07T08:34:12;21.15;;;10.35;;
42662;SDS011;44330;51.360;6.686;2022-12-07T08:36:38;23.63;;;10.55;;
42662;SDS011;44330;51.360;6.686;2022-12-07T08:39:04;16.77;;;9.15;;
42662;SDS011;44330;51.360;6.686;2022-12-07T08:41:30;19.65;;;9.57;;
42662;SDS011;44330;51.360;6.686;2022-12-07T08:43:56;17.45;;;10.02;;
42662;SDS011;44330;51.360;6.686;2022-12-07T08:46:26;15.93;;;9.35;;
42662;SDS011;44330;51.360;6.686;2022-12-07T08:49:05;17.35;;;10.02;;
42662;SDS011;44330;51.360;6.686;2022-12-07T08:51:42;17.67;;;9.60;;
42662;SDS011;44330;51.360;6.686;2022-12-07T08:54:09;16.60;;;9.48;;
42662;SDS011;44330;51.360;6.686;2022-12-07T08:56:37;21.60;;;10.50;;
42662;SDS011;44330;51.360;6.686;2022-12-07T08:59:04;18.77;;;9.85;;
42662;SDS011;44330;51.360;6.686;2022-12-07T09:01:31;20.90;;;11.20;;
42662;SDS011;44330;51.360;6.686;2022-12-07T09:03:57;23.42;;;11.30;;
42662;SDS011;44330;51.360;6.686;2022-12-07T09:06:23;17.45;;;10.38;;
42662;SDS011;44330;51.360;6.686;2022-12-07T09:08:50;22.13;;;9.90;;
42662;SDS011;44330;51.360;6.686;2022-12-07T09:11:20;23.13;;;11.45;;
42662;SDS011;44330;51.360;6.686;2022-12-07T09:13:45;17.20;;;9.23;;
42662;SDS011;44330;51.360;6.686;2022-12-07T09:16:11;15.77;;;8.60;;
42662;SDS011;44330;51.360;6.686;2022-12-07T09:18:36;21.02;;;9.32;;
42662;SDS011;44330;51.360;6.686;2022-12-07T09:21:03;19.25;;;9.38;;
42662;SDS011;44330;51.360;6.686;2022-12-07T09:23:29;16.33;;;8.70;;
42662;SDS011;44330;51.360;6.686;2022-12-07T09:25:58;18.80;;;8.27;;
42662;SDS011;44330;51.360;6.686;2022-12-07T09:28:27;16.73;;;9.32;;
42662;SDS011;44330;51.360;6.686;2022-12-07T09:30:53;17.88;;;8.73;;
42662;SDS011;44330;51.360;6.686;2022-12-07T09:33:19;15.82;;;8.35;;
42662;SDS011;44330;51.360;6.686;2022-12-07T09:35:45;16.00;;;8.73;;
42662;SDS011;44330;51.360;6.686;2022-12-07T09:38:12;13.40;;;8.23;;
42662;SDS011;44330;51.360;6.686;2022-12-07T09:40:38;12.00;;;7.00;;
42662;SDS011;44330;51.360;6.686;2022-12-07T09:43:04;14.75;;;7.55;;
42662;SDS011;44330;51.360;6.686;2022-12-07T09:45:34;15.68;;;7.68;;
42662;SDS011;44330;51.360;6.686;2022-12-07T09:48:04;11.52;;;6.20;;
42662;SDS011;44330;51.360;6.686;2022-12-07T09:53:01;17.58;;;6.88;;
42662;SDS011;44330;51.360;6.686;2022-12-07T09:55:33;11.55;;;6.63;;
42662;SDS011;44330;51.360;6.686;2022-12-07T09:58:00;16.30;;;6.50;;
42662;SDS011;44330;51.360;6.686;2022-12-07T10:00:26;17.05;;;6.72;;
42662;SDS011;44330;51.360;6.686;2022-12-07T10:02:57;15.50;;;6.80;;
42662;SDS011;44330;51.360;6.686;2022-12-07T10:05:31;13.27;;;7.05;;
42662;SDS011;44330;51.360;6.686;2022-12-07T10:08:00;14.63;;;7.10;;
42662;SDS011;44330;51.360;6.686;2022-12-07T10:10:28;16.73;;;7.20;;
42662;SDS011;44330;51.360;6.686;2022-12-07T10:15:50;15.13;;;7.07;;
42662;SDS011;44330;51.360;6.686;2022-12-07T10:23:29;14.80;;;9.95;;
42662;SDS011;44330;51.360;6.686;2022-12-07T10:25:54;17.23;;;10.82;;
42662;SDS011;44330;51.360;6.686;2022-12-07T10:28:20;24.20;;;11.23;;
42662;SDS011;44330;51.360;6.686;2022-12-07T10:30:59;24.53;;;10.27;;
42662;SDS011;44330;51.360;6.686;2022-12-07T10:36:19;16.98;;;10.18;;
42662;SDS011;44330;51.360;6.686;2022-12-07T10:38:52;17.63;;;8.02;;
42662;SDS011;44330;51.360;6.686;2022-12-07T10:41:24;20.42;;;8.40;;
42662;SDS011;44330;51.360;6.686;2022-12-07T10:43:54;18.65;;;8.18;;
42662;SDS011;44330;51.360;6.686;2022-12-07T10:46:27;14.13;;;6.38;;
42662;SDS011;44330;51.360;6.686;2022-12-07T10:52:38;18.73;;;5.97;;
42662;SDS011;44330;51.360;6.686;2022-12-07T11:00:31;9.50;;;5.07;;
42662;SDS011;44330;51.360;6.686;2022-12-07T11:05:40;10.98;;;4.00;;
42662;SDS011;44330;51.360;6.686;2022-12-07T11:19:05;10.75;;;3.38;;
42662;SDS011;44330;51.360;6.686;2022-12-07T11:21:51;11.90;;;3.38;;
42662;SDS011;44330;51.360;6.686;2022-12-07T11:24:48;13.68;;;3.42;;
42662;SDS011;44330;51.360;6.686;2022-12-07T11:27:25;9.63;;;3.25;;
42662;SDS011;44330;51.360;6.686;2022-12-07T11:38:14;8.35;;;2.92;;
42662;SDS011;44330;51.360;6.686;2022-12-07T11:40:43;8.35;;;3.15;;
42662;SDS011;44330;51.360;6.686;2022-12-07T11:43:15;8.82;;;3.22;;
42662;SDS011;44330;51.360;6.686;2022-12-07T11:46:11;12.48;;;3.53;;
42662;SDS011;44330;51.360;6.686;2022-12-07T11:48:45;9.20;;;3.05;;
42662;SDS011;44330;51.360;6.686;2022-12-07T11:51:33;7.30;;;2.95;;
42662;SDS011;44330;51.360;6.686;2022-12-07T11:54:03;11.50;;;3.20;;
42662;SDS011;44330;51.360;6.686;2022-12-07T11:56:37;14.45;;;3.58;;
42662;SDS011;44330;51.360;6.686;2022-12-07T11:59:06;11.63;;;3.40;;
42662;SDS011;44330;51.360;6.686;2022-12-07T12:06:35;11.45;;;3.53;;
42662;SDS011;44330;51.360;6.686;2022-12-07T12:09:15;9.60;;;3.17;;
42662;SDS011;44330;51.360;6.686;2022-12-07T12:11:54;10.23;;;3.08;;
42662;SDS011;44330;51.360;6.686;2022-12-07T12:14:43;9.43;;;2.55;;
42662;SDS011;44330;51.360;6.686;2022-12-07T12:20:00;6.75;;;2.25;;
42662;SDS011;44330;51.360;6.686;2022-12-07T12:22:28;10.35;;;2.80;;
42662;SDS011;44330;51.360;6.686;2022-12-07T12:25:17;9.45;;;2.35;;
42662;SDS011;44330;51.360;6.686;2022-12-07T12:27:58;16.48;;;3.10;;
42662;SDS011;44330;51.360;6.686;2022-12-07T12:30:35;10.90;;;2.83;;
42662;SDS011;44330;51.360;6.686;2022-12-07T12:33:27;7.15;;;2.55;;
42662;SDS011;44330;51.360;6.686;2022-12-07T12:36:16;6.35;;;2.67;;
42662;SDS011;44330;51.360;6.686;2022-12-07T12:54:35;15.18;;;3.83;;
42662;SDS011;44330;51.360;6.686;2022-12-07T12:57:22;9.00;;;3.72;;
42662;SDS011;44330;51.360;6.686;2022-12-07T13:02:30;11.25;;;3.40;;
42662;SDS011;44330;51.360;6.686;2022-12-07T13:13:37;15.25;;;3.28;;
42662;SDS011;44330;51.360;6.686;2022-12-07T13:15:45;7.60;;;3.38;;
42662;SDS011;44330;51.360;6.686;2022-12-07T13:21:01;10.05;;;2.28;;
42662;SDS011;44330;51.360;6.686;2022-12-07T13:26:19;14.27;;;3.38;;
42662;SDS011;44330;51.360;6.686;2022-12-07T13:31:38;5.22;;;1.92;;
42662;SDS011;44330;51.360;6.686;2022-12-07T13:37:14;9.85;;;2.40;;
42662;SDS011;44330;51.360;6.686;2022-12-07T13:39:48;11.05;;;2.30;;
42662;SDS011;44330;51.360;6.686;2022-12-07T13:44:57;4.82;;;1.80;;
42662;SDS011;44330;51.360;6.686;2022-12-07T13:50:28;10.43;;;2.55;;
42662;SDS011;44330;51.360;6.686;2022-12-07T13:53:07;4.80;;;1.60;;
42662;SDS011;44330;51.360;6.686;2022-12-07T13:55:44;10.48;;;1.92;;
42662;SDS011;44330;51.360;6.686;2022-12-07T13:58:11;14.18;;;2.15;;
42662;SDS011;44330;51.360;6.686;2022-12-07T14:00:37;10.40;;;2.13;;
42662;SDS011;44330;51.360;6.686;2022-12-07T14:08:46;10.55;;;1.98;;
42662;SDS011;44330;51.360;6.686;2022-12-07T14:11:21;10.70;;;2.10;;
42662;SDS011;44330;51.360;6.686;2022-12-07T14:16:28;9.50;;;1.80;;
42662;SDS011;44330;51.360;6.686;2022-12-07T14:19:02;9.82;;;2.33;;
42662;SDS011;44330;51.360;6.686;2022-12-07T14:22:17;13.15;;;2.28;;
42662;SDS011;44330;51.360;6.686;2022-12-07T14:24:46;10.95;;;2.45;;
42662;SDS011;44330;51.360;6.686;2022-12-07T14:27:24;8.27;;;2.13;;
42662;SDS011;44330;51.360;6.686;2022-12-07T14:29:58;10.05;;;2.67;;
42662;SDS011;44330;51.360;6.686;2022-12-07T14:32:26;9.50;;;3.13;;
42662;SDS011;44330;51.360;6.686;2022-12-07T14:35:02;11.52;;;2.75;;
42662;SDS011;44330;51.360;6.686;2022-12-07T14:37:35;8.75;;;3.53;;
42662;SDS011;44330;51.360;6.686;2022-12-07T14:40:04;10.13;;;3.35;;
42662;SDS011;44330;51.360;6.686;2022-12-07T14:42:31;8.13;;;2.88;;
42662;SDS011;44330;51.360;6.686;2022-12-07T14:44:58;5.35;;;2.55;;
42662;SDS011;44330;51.360;6.686;2022-12-07T14:47:24;11.18;;;3.28;;
42662;SDS011;44330;51.360;6.686;2022-12-07T14:49:50;8.40;;;3.13;;
42662;SDS011;44330;51.360;6.686;2022-12-07T14:52:17;9.23;;;3.30;;
42662;SDS011;44330;51.360;6.686;2022-12-07T14:54:47;8.63;;;2.75;;
42662;SDS011;44330;51.360;6.686;2022-12-07T14:57:13;11.23;;;3.53;;
42662;SDS011;44330;51.360;6.686;2022-12-07T14:59:39;12.30;;;3.78;;
42662;SDS011;44330;51.360;6.686;2022-12-07T15:02:05;9.70;;;3.53;;
42662;SDS011;44330;51.360;6.686;2022-12-07T15:04:31;13.40;;;4.43;;
42662;SDS011;44330;51.360;6.686;2022-12-07T15:06:58;10.95;;;3.72;;
42662;SDS011;44330;51.360;6.686;2022-12-07T15:09:25;10.88;;;3.78;;
42662;SDS011;44330;51.360;6.686;2022-12-07T15:11:51;12.07;;;3.60;;
42662;SDS011;44330;51.360;6.686;2022-12-07T15:14:16;12.20;;;3.55;;
42662;SDS011;44330;51.360;6.686;2022-12-07T15:16:42;21.30;;;5.07;;
42662;SDS011;44330;51.360;6.686;2022-12-07T15:19:18;11.32;;;4.10;;
42662;SDS011;44330;51.360;6.686;2022-12-07T15:21:50;11.30;;;4.32;;
42662;SDS011;44330;51.360;6.686;2022-12-07T15:24:16;14.52;;;5.35;;
42662;SDS011;44330;51.360;6.686;2022-12-07T15:26:41;14.90;;;5.13;;
42662;SDS011;44330;51.360;6.686;2022-12-07T15:29:07;9.27;;;4.07;;
42662;SDS011;44330;51.360;6.686;2022-12-07T15:31:33;17.23;;;4.55;;
42662;SDS011;44330;51.360;6.686;2022-12-07T15:33:59;10.73;;;4.82;;
42662;SDS011;44330;51.360;6.686;2022-12-07T15:36:26;10.50;;;5.47;;
42662;SDS011;44330;51.360;6.686;2022-12-07T15:38:53;10.15;;;4.20;;
42662;SDS011;44330;51.360;6.686;2022-12-07T15:41:19;14.52;;;4.63;;
42662;SDS011;44330;51.360;6.686;2022-12-07T15:43:45;11.15;;;4.15;;
42662;SDS011;44330;51.360;6.686;2022-12-07T15:46:33;12.05;;;4.28;;
42662;SDS011;44330;51.360;6.686;2022-12-07T15:49:01;10.73;;;3.95;;
42662;SDS011;44330;51.360;6.686;2022-12-07T15:51:27;7.05;;;3.10;;
42662;SDS011;44330;51.360;6.686;2022-12-07T15:53:57;12.60;;;3.30;;
42662;SDS011;44330;51.360;6.686;2022-12-07T15:56:23;10.90;;;2.97;;
42662;SDS011;44330;51.360;6.686;2022-12-07T15:58:49;7.35;;;3.47;;
42662;SDS011;44330;51.360;6.686;2022-12-07T16:01:15;13.50;;;3.58;;
42662;SDS011;44330;51.360;6.686;2022-12-07T16:03:43;11.55;;;3.67;;
42662;SDS011;44330;51.360;6.686;2022-12-07T16:06:09;8.25;;;3.10;;
42662;SDS011;44330;51.360;6.686;2022-12-07T16:08:35;11.70;;;3.15;;
42662;SDS011;44330;51.360;6.686;2022-12-07T16:11:04;6.50;;;2.85;;
42662;SDS011;44330;51.360;6.686;2022-12-07T16:13:31;11.07;;;2.95;;
42662;SDS011;44330;51.360;6.686;2022-12-07T16:15:56;14.60;;;3.55;;
42662;SDS011;44330;51.360;6.686;2022-12-07T16:18:25;10.82;;;4.32;;
42662;SDS011;44330;51.360;6.686;2022-12-07T16:20:50;12.43;;;3.75;;
42662;SDS011;44330;51.360;6.686;2022-12-07T16:23:16;10.35;;;2.78;;
42662;SDS011;44330;51.360;6.686;2022-12-07T16:25:41;11.40;;;3.45;;
42662;SDS011;44330;51.360;6.686;2022-12-07T16:28:07;10.93;;;5.10;;
42662;SDS011;44330;51.360;6.686;2022-12-07T16:30:33;12.15;;;5.57;;
42662;SDS011;44330;51.360;6.686;2022-12-07T16:32:58;9.93;;;4.13;;
42662;SDS011;44330;51.360;6.686;2022-12-07T16:35:24;6.65;;;3.47;;
42662;SDS011;44330;51.360;6.686;2022-12-07T16:37:50;12.48;;;3.55;;
42662;SDS011;44330;51.360;6.686;2022-12-07T16:40:15;10.73;;;3.25;;
42662;SDS011;44330;51.360;6.686;2022-12-07T16:42:48;14.60;;;3.92;;
42662;SDS011;44330;51.360;6.686;2022-12-07T16:45:14;13.88;;;4.30;;
42662;SDS011;44330;51.360;6.686;2022-12-07T16:47:42;14.10;;;5.07;;